Paul R Tregurtha — WYR4481 — position and weather

sailwx.info

Track history (hours):
 
Tides and Currents Weather Stations Pressure Air Temp Water Temp Dewpoint Dewpoint Depression Visibility Wind Speed Wind Dir Waves Ship Positions

Paul R Tregurtha

More information available from US FCC via Universal Licensing System and Coast Guard Vessel Documentation Center.

Last reported at 2014-Aug-01 04:33 UTC. Time now 2014-Aug-01 05:43 UTC.
Position N 46°50' W 085°00'.

Length 308 m; draft 8.5 m.

Type: Cargo ship. MMSI: 366904940.

Date/timePositionNaut miles runAvg speedWind from/ knotsBaromVisibWave heightAir tempDewpointWater temp
2014-Aug-01 04:33N 46°50' W 085°00'5 9.8
2014-Aug-01 04:00N 46°54' W 085°06'1413.7 170 / 61015.9 12.0 7.0
2014-Aug-01 03:00N 47°00' W 085°24'10012.5 170 / 41015.6 9.8 5.2
2014-Jul-31 19:00N 47°36' W 087°42'2412.1 260 / 151014.2 13.1 7.0
2014-Jul-31 17:00N 47°36' W 088°18'1413.5 220 / 101014.2 8.6 6.6
2014-Jul-31 16:00N 47°30' W 088°36'7412.3 240 / 71014.2 8.3 6.7
2014-Jul-31 10:00N 47°18' W 090°24'6212.4 290 / 101014.6 11.8 11.4
2014-Jul-31 05:00N 46°54' W 091°48'1413.7 320 / 91015.6 18.3 12.2
2014-Jul-31 04:00N 46°48' W 092°06'6 3.0 320 / 141015.6 21.3 15.1
2014-Jul-31 02:00N 46°42' W 092°06'0 0.0 270 / 91015.2 23.8 19.4
2014-Jul-30 22:00N 46°42' W 092°06'0 0.0 300 / 191014.9 26.2 18.0
2014-Jul-30 21:00N 46°42' W 092°06'0 0.0 280 / 131014.9 26.6 18.2
2014-Jul-30 20:00N 46°42' W 092°06'0 0.0 320 / 111015.6 25.2 18.7
2014-Jul-30 19:00N 46°42' W 092°06'0 0.0 140 / 151015.9 21.0 19.0
2014-Jul-30 18:00N 46°42' W 092°06'6 6.0 220 / 51016.9 25.1 18.3
2014-Jul-30 17:00N 46°48' W 092°06'1212.3 180 / 81017.3 20.7 13.6
2014-Jul-30 16:00N 46°48' W 091°48'2713.7 190 / 81017.6 14.6 11.6
2014-Jul-30 14:00N 47°00' W 091°12'1413.7 220 / 71018.3 10.5 9.2
2014-Jul-30 13:00N 47°06' W 090°54'1212.3 240 / 101018.3 0.0 10.6 12.0
2014-Jul-30 12:00N 47°06' W 090°36'8912.7 240 / 71018.3 11.6 12.6
2014-Jul-30 05:00N 47°30' W 088°30'1616.2 140 / 21017.3 10.6 6.9
2014-Jul-30 04:00N 47°30' W 088°06'1212.2 340 / 111016.3 9.2 7.5
2014-Jul-30 03:00N 47°30' W 087°48'11212.4 350 / 131015.6 9.6 11.9
2014-Jul-29 18:00N 46°54' W 085°12'1413.7 270 / 91014.2 6.7 8.6
2014-Jul-29 17:00N 46°48' W 084°54'1312.7 280 / 161013.9 8.6 13.4
2014-Jul-29 16:00N 46°36' W 084°48'1413.8 1013.5 10.3 14.8
2014-Jul-29 15:00N 46°30' W 084°30'8 4.1 330 / 111013.5 11.3 14.8
2014-Jul-29 13:00N 46°30' W 084°18'7 3.6 270 / 61013.3 11.8 15.4
2014-Jul-29 11:00N 46°24' W 084°12'7 7.3 260 / 61013.0 11.2 15.3
2014-Jul-29 10:00N 46°18' W 084°06'6 6.0 290 / 81012.7 11.5 15.3
2014-Jul-29 09:00N 46°12' W 084°06'1514.6 290 / 111012.0 13.3 16.0
2014-Jul-29 08:00N 46°00' W 083°54'1312.7 220 / 61012.3 13.9 16.5
2014-Jul-29 07:00N 45°48' W 083°48'4 9.9 230 / 71013.0 14.3 14.8
2014-Jul-29 06:33N 45°45' W 083°44'610.7
2014-Jul-29 06:00N 45°42' W 083°36'919.6 260 / 61013.7 14.9 16.1
2014-Jul-29 05:33N 45°34' W 083°33'712.5
2014-Jul-29 05:00N 45°30' W 083°24'1312.7 280 / 91014.027.0 0.515.0 15.8
2014-Jul-29 04:00N 45°18' W 083°18'1514.7 290 / 101014.0 14.9 14.6
2014-Jul-29 03:00N 45°06' W 083°06'1312.7 320 / 61014.7 15.5 15.7
2014-Jul-29 02:00N 44°54' W 083°00'3812.7 300 / 101015.0 15.3 14.8
2014-Jul-28 23:00N 44°18' W 082°42'1312.7 310 / 161014.310.8 1.515.8 16.1
2014-Jul-28 22:00N 44°06' W 082°36'7 7.4 330 / 171014.010.8 1.015.4 18.6
2014-Jul-28 21:00N 44°00' W 082°30'1212.0 330 / 181014.010.8 1.514.9 19.2
2014-Jul-28 20:00N 43°48' W 082°30'1212.0 340 / 161014.010.8 1.514.3 19.0
2014-Jul-28 19:00N 43°36' W 082°30'2412.2 360 / 201013.010.8 2.014.3 19.0
2014-Jul-28 17:00N 43°12' W 082°24'24 2.4 340 / 221012.3 14.8 19.8
2014-Jul-28 07:00N 42°48' W 082°30'0 0.0 060 / 11005.2 16.9 22.7
2014-Jul-28 05:00N 42°48' W 082°30'0 0.0 220 / 11005.9 16.2 23.1
2014-Jul-28 04:00N 42°48' W 082°30'0 0.0 200 / 11006.2 16.4 23.0
2014-Jul-28 02:00N 42°48' W 082°30'0 0.0 120 / 21003.9 17.4 23.0
2014-Jul-28 01:00N 42°48' W 082°30'0 0.0 080 / 91003.9 17.0 23.1
2014-Jul-28 00:00N 42°48' W 082°30'0 0.0 080 / 21005.9 18.6 23.8
2014-Jul-27 20:00N 42°48' W 082°30'0 0.0 250 / 101004.2 29.2 23.0
2014-Jul-27 19:00N 42°48' W 082°30'0 0.0 220 / 61005.5 28.6 23.0
2014-Jul-27 17:00N 42°48' W 082°30'0 0.0 240 / 71007.6 27.9 22.8
2014-Jul-27 15:00N 42°48' W 082°30'0 0.0 190 / 101008.3 21.9 20.5
2014-Jul-27 14:00N 42°48' W 082°30'1312.8 190 / 121007.6 22.4 20.4
2014-Jul-27 13:00N 43°00' W 082°24'6 6.0 220 / 21007.6 21.2 20.3
2014-Jul-27 12:00N 43°06' W 082°24'18 9.0 230 / 41007.6 19.5 20.0
2014-Jul-27 10:00N 43°24' W 082°24'1212.0 280 / 101007.2 18.9 19.4
2014-Jul-27 09:00N 43°36' W 082°24'2412.2 270 / 101007.6 19.5 19.4
2014-Jul-27 07:00N 44°00' W 082°30'7512.5 280 / 201007.2 20.0 19.7
2014-Jul-27 01:00N 45°12' W 083°00'1312.7 240 / 101006.610.8 1.017.7 14.8
2014-Jul-27 00:00N 45°24' W 083°06'1010.3 240 / 101006.610.8 0.517.5 15.4
2014-Jul-26 23:00N 45°30' W 083°18'1514.6 040 / 131007.210.8 1.016.5 16.4
2014-Jul-26 22:00N 45°42' W 083°30'2212.8 060 / 141006.910.8 0.517.0 17.1
2014-Jul-26 20:18N 45°56' W 083°53'412.6
2014-Jul-26 20:00N 46°00' W 083°54'22 7.3 350 / 81007.9 18.9 17.6
2014-Jul-26 17:00N 46°18' W 084°12'7 7.3 160 / 41008.3 19.1 15.8
2014-Jul-26 16:00N 46°24' W 084°18'7 3.6 190 / 61008.6 18.0 15.5
2014-Jul-26 14:00N 46°30' W 084°24'41 8.1 200 / 61009.5 18.9 15.4
2014-Jul-26 09:00N 46°54' W 085°12'1413.7 210 / 121008.8 0.513.2 5.4
2014-Jul-26 08:00N 47°00' W 085°30'1413.7 180 / 141008.5 10.9 4.4
2014-Jul-26 07:00N 47°06' W 085°48'9812.3 190 / 141008.8 8.9 4.2
2014-Jul-25 23:00N 47°36' W 088°06'1212.1 140 / 61009.5 16.2 5.9
2014-Jul-25 22:00N 47°36' W 088°24'1413.5 170 / 71009.5 14.7 6.0
2014-Jul-25 21:00N 47°30' W 088°42'7412.3 330 / 51009.5 15.0 6.7
2014-Jul-25 15:00N 47°18' W 090°30'1413.6 030 / 21010.5 16.2 11.8
2014-Jul-25 14:00N 47°12' W 090°48'1010.1 010 / 91010.210.8 11.0 9.7
2014-Jul-25 13:00N 47°06' W 091°00'1212.3 040 / 91010.5 12.2 8.5
2014-Jul-25 12:00N 47°06' W 091°18'1413.7 1011.510.8 0.510.4 9.8
2014-Jul-25 11:00N 47°00' W 091°36'1010.2 030 / 81010.810.8 0.510.0 11.1
2014-Jul-25 10:00N 46°54' W 091°48'1413.7 030 / 81011.2 12.1 13.3
2014-Jul-25 09:00N 46°48' W 092°06'6 6.0 030 / 11012.2 15.0 18.2
2014-Jul-25 08:00N 46°42' W 092°06'0 0.0 060 / 81012.2 15.2 18.7
2014-Jul-25 07:00N 46°42' W 092°06'0 0.0 070 / 101012.2 15.4 19.4
2014-Jul-25 06:00N 46°42' W 092°06'0 0.0 070 / 81013.2 17.1 18.1
2014-Jul-25 04:00N 46°42' W 092°06'0 0.0 070 / 41012.9 18.5 19.6
2014-Jul-25 03:00N 46°42' W 092°06'0 0.0 280 / 11014.2 19.6 19.5
2014-Jul-25 01:00N 46°42' W 092°06'0 0.0 060 / 41014.9 18.3 19.0
2014-Jul-25 00:00N 46°42' W 092°06'0 0.0 170 / 71014.2 19.5 18.4
2014-Jul-24 23:00N 46°42' W 092°06'20 6.8 060 / 61013.9 19.4 18.5
2014-Jul-24 20:00N 46°54' W 091°42'1413.7 080 / 61017.6 15.1 11.7
2014-Jul-24 19:00N 47°00' W 091°24'1212.3 090 / 81017.9 15.5 10.3
2014-Jul-24 18:00N 47°00' W 091°06'1413.7 100 / 31019.3 16.1 8.9
2014-Jul-24 17:00N 47°06' W 090°48'1413.6 070 / 21019.6 13.8 12.0
2014-Jul-24 16:00N 47°12' W 090°30'7813.0 090 / 21020.3 15.0 14.1
2014-Jul-24 10:00N 47°24' W 088°36'1413.6 250 / 71021.0 2.2 9.5 6.0
2014-Jul-24 09:00N 47°30' W 088°18'1212.2 220 / 131021.0 13.6 6.3
2014-Jul-24 08:00N 47°30' W 088°00'12912.9 250 / 91020.7 14.0 8.3
2014-Jul-23 22:00N 46°48' W 085°00'3110.2 280 / 161021.310.8 1.0 8.7 10.9
2014-Jul-23 19:00N 46°30' W 084°24'0 0.0 320 / 171021.0 16.9 14.8
2014-Jul-23 18:00N 46°30' W 084°24'4 4.1 280 / 91021.7 17.7 15.5
2014-Jul-23 17:00N 46°30' W 084°18'7 7.3 340 / 121020.1 18.2 15.2
2014-Jul-23 16:00N 46°24' W 084°12'20 9.9 060 / 61020.4 16.7 15.4
2014-Jul-23 14:00N 46°06' W 084°00'7 7.3 350 / 111019.4 15.4 17.6
2014-Jul-23 13:00N 46°00' W 083°54'2713.5 320 / 121019.410.8 1.014.6 16.7
2014-Jul-23 11:00N 45°36' W 083°36'3712.2 330 / 141017.410.8 1.514.4 15.8
2014-Jul-23 08:00N 45°06' W 083°06'1312.7 320 / 191013.3 14.9 15.4
2014-Jul-23 07:00N 44°54' W 083°00'3812.7 310 / 271012.310.8 1.015.4 17.1
2014-Jul-23 04:00N 44°18' W 082°42'2412.2 340 / 81012.3 20.6 19.1
2014-Jul-23 02:00N 43°54' W 082°36'2412.2 220 / 121012.3 26.2 20.9
2014-Jul-23 00:00N 43°30' W 082°30'1918.5 180 / 141013.010.8 0.526.9 21.0
2014-Jul-22 23:00N 43°12' W 082°24'1212.0 190 / 141013.7 27.8 21.4
2014-Jul-22 22:00N 43°00' W 082°24'7 7.4 200 / 141014.3 29.7 20.9
2014-Jul-22 21:00N 42°54' W 082°30'1212.0 180 / 141015.4 31.3 20.3
2014-Jul-22 20:00N 42°42' W 082°30'6 6.0 180 / 151016.4 30.9 20.1
2014-Jul-22 19:00N 42°36' W 082°30'3210.7 220 / 131016.7 30.4 20.3
2014-Jul-22 16:00N 42°18' W 083°06'1212.0 180 / 71018.2 26.7 22.9
2014-Jul-22 15:00N 42°06' W 083°06'6 6.0 190 / 71018.9 24.0 23.1
2014-Jul-22 14:00N 42°00' W 083°06'7 7.5 190 / 61019.5 22.8 23.2
2014-Jul-22 13:00N 41°54' W 083°12'4 2.2 240 / 71020.1 23.3 24.0
2014-Jul-22 11:00N 41°54' W 083°18'0 0.0 220 / 11019.8 23.1 25.3
2014-Jul-22 10:00N 41°54' W 083°18'0 0.0 170 / 11019.5 23.6 25.3
2014-Jul-22 09:00N 41°54' W 083°18'0 0.0 290 / 11019.5 23.7 25.4
2014-Jul-22 05:00N 41°54' W 083°18'   020 / 11019.8 23.9 25.9
Track history (hours):
 
Tides and Currents Weather Stations Pressure Air Temp Water Temp Dewpoint Dewpoint Depression Visibility Wind Speed Wind Dir Waves Ship Positions

Paul R Tregurtha

More information available from US FCC via Universal Licensing System and Coast Guard Vessel Documentation Center.

Last reported at 2014-Aug-01 04:33 UTC. Time now 2014-Aug-01 05:43 UTC.
Position N 46°50' W 085°00'.

Length 308 m; draft 8.5 m.

Type: Cargo ship. MMSI: 366904940.

Date/timePositionNaut miles runAvg speedWind from/ knotsBaromVisibWave heightAir tempDewpointWater temp
2014-Aug-01 04:33N 46°50' W 085°00'5 9.8
2014-Aug-01 04:00N 46°54' W 085°06'1413.7 170 / 61015.9 12.0 7.0
2014-Aug-01 03:00N 47°00' W 085°24'10012.5 170 / 41015.6 9.8 5.2
2014-Jul-31 19:00N 47°36' W 087°42'2412.1 260 / 151014.2 13.1 7.0
2014-Jul-31 17:00N 47°36' W 088°18'1413.5 220 / 101014.2 8.6 6.6
2014-Jul-31 16:00N 47°30' W 088°36'7412.3 240 / 71014.2 8.3 6.7
2014-Jul-31 10:00N 47°18' W 090°24'6212.4 290 / 101014.6 11.8 11.4
2014-Jul-31 05:00N 46°54' W 091°48'1413.7 320 / 91015.6 18.3 12.2
2014-Jul-31 04:00N 46°48' W 092°06'6 3.0 320 / 141015.6 21.3 15.1
2014-Jul-31 02:00N 46°42' W 092°06'0 0.0 270 / 91015.2 23.8 19.4
2014-Jul-30 22:00N 46°42' W 092°06'0 0.0 300 / 191014.9 26.2 18.0
2014-Jul-30 21:00N 46°42' W 092°06'0 0.0 280 / 131014.9 26.6 18.2
2014-Jul-30 20:00N 46°42' W 092°06'0 0.0 320 / 111015.6 25.2 18.7
2014-Jul-30 19:00N 46°42' W 092°06'0 0.0 140 / 151015.9 21.0 19.0
2014-Jul-30 18:00N 46°42' W 092°06'6 6.0 220 / 51016.9 25.1 18.3
2014-Jul-30 17:00N 46°48' W 092°06'1212.3 180 / 81017.3 20.7 13.6
2014-Jul-30 16:00N 46°48' W 091°48'2713.7 190 / 81017.6 14.6 11.6
2014-Jul-30 14:00N 47°00' W 091°12'1413.7 220 / 71018.3 10.5 9.2
2014-Jul-30 13:00N 47°06' W 090°54'1212.3 240 / 101018.3 0.0 10.6 12.0
2014-Jul-30 12:00N 47°06' W 090°36'8912.7 240 / 71018.3 11.6 12.6
2014-Jul-30 05:00N 47°30' W 088°30'1616.2 140 / 21017.3 10.6 6.9
2014-Jul-30 04:00N 47°30' W 088°06'1212.2 340 / 111016.3 9.2 7.5
2014-Jul-30 03:00N 47°30' W 087°48'11212.4 350 / 131015.6 9.6 11.9
2014-Jul-29 18:00N 46°54' W 085°12'1413.7 270 / 91014.2 6.7 8.6
2014-Jul-29 17:00N 46°48' W 084°54'1312.7 280 / 161013.9 8.6 13.4
2014-Jul-29 16:00N 46°36' W 084°48'1413.8 1013.5 10.3 14.8
2014-Jul-29 15:00N 46°30' W 084°30'8 4.1 330 / 111013.5 11.3 14.8
2014-Jul-29 13:00N 46°30' W 084°18'7 3.6 270 / 61013.3 11.8 15.4
2014-Jul-29 11:00N 46°24' W 084°12'7 7.3 260 / 61013.0 11.2 15.3
2014-Jul-29 10:00N 46°18' W 084°06'6 6.0 290 / 81012.7 11.5 15.3
2014-Jul-29 09:00N 46°12' W 084°06'1514.6 290 / 111012.0 13.3 16.0
2014-Jul-29 08:00N 46°00' W 083°54'1312.7 220 / 61012.3 13.9 16.5
2014-Jul-29 07:00N 45°48' W 083°48'4 9.9 230 / 71013.0 14.3 14.8
2014-Jul-29 06:33N 45°45' W 083°44'610.7
2014-Jul-29 06:00N 45°42' W 083°36'919.6 260 / 61013.7 14.9 16.1
2014-Jul-29 05:33N 45°34' W 083°33'712.5
2014-Jul-29 05:00N 45°30' W 083°24'1312.7 280 / 91014.027.0 0.515.0 15.8
2014-Jul-29 04:00N 45°18' W 083°18'1514.7 290 / 101014.0 14.9 14.6
2014-Jul-29 03:00N 45°06' W 083°06'1312.7 320 / 61014.7 15.5 15.7
2014-Jul-29 02:00N 44°54' W 083°00'3812.7 300 / 101015.0 15.3 14.8
2014-Jul-28 23:00N 44°18' W 082°42'1312.7 310 / 161014.310.8 1.515.8 16.1
2014-Jul-28 22:00N 44°06' W 082°36'7 7.4 330 / 171014.010.8 1.015.4 18.6
2014-Jul-28 21:00N 44°00' W 082°30'1212.0 330 / 181014.010.8 1.514.9 19.2
2014-Jul-28 20:00N 43°48' W 082°30'1212.0 340 / 161014.010.8 1.514.3 19.0
2014-Jul-28 19:00N 43°36' W 082°30'2412.2 360 / 201013.010.8 2.014.3 19.0
2014-Jul-28 17:00N 43°12' W 082°24'24 2.4 340 / 221012.3 14.8 19.8
2014-Jul-28 07:00N 42°48' W 082°30'0 0.0 060 / 11005.2 16.9 22.7
2014-Jul-28 05:00N 42°48' W 082°30'0 0.0 220 / 11005.9 16.2 23.1
2014-Jul-28 04:00N 42°48' W 082°30'0 0.0 200 / 11006.2 16.4 23.0
2014-Jul-28 02:00N 42°48' W 082°30'0 0.0 120 / 21003.9 17.4 23.0
2014-Jul-28 01:00N 42°48' W 082°30'0 0.0 080 / 91003.9 17.0 23.1
2014-Jul-28 00:00N 42°48' W 082°30'0 0.0 080 / 21005.9 18.6 23.8
2014-Jul-27 20:00N 42°48' W 082°30'0 0.0 250 / 101004.2 29.2 23.0
2014-Jul-27 19:00N 42°48' W 082°30'0 0.0 220 / 61005.5 28.6 23.0
2014-Jul-27 17:00N 42°48' W 082°30'0 0.0 240 / 71007.6 27.9 22.8
2014-Jul-27 15:00N 42°48' W 082°30'0 0.0 190 / 101008.3 21.9 20.5
2014-Jul-27 14:00N 42°48' W 082°30'1312.8 190 / 121007.6 22.4 20.4
2014-Jul-27 13:00N 43°00' W 082°24'6 6.0 220 / 21007.6 21.2 20.3
2014-Jul-27 12:00N 43°06' W 082°24'18 9.0 230 / 41007.6 19.5 20.0
2014-Jul-27 10:00N 43°24' W 082°24'1212.0 280 / 101007.2 18.9 19.4
2014-Jul-27 09:00N 43°36' W 082°24'2412.2 270 / 101007.6 19.5 19.4
2014-Jul-27 07:00N 44°00' W 082°30'7512.5 280 / 201007.2 20.0 19.7
2014-Jul-27 01:00N 45°12' W 083°00'1312.7 240 / 101006.610.8 1.017.7 14.8
2014-Jul-27 00:00N 45°24' W 083°06'1010.3 240 / 101006.610.8 0.517.5 15.4
2014-Jul-26 23:00N 45°30' W 083°18'1514.6 040 / 131007.210.8 1.016.5 16.4
2014-Jul-26 22:00N 45°42' W 083°30'2212.8 060 / 141006.910.8 0.517.0 17.1
2014-Jul-26 20:18N 45°56' W 083°53'412.6
2014-Jul-26 20:00N 46°00' W 083°54'22 7.3 350 / 81007.9 18.9 17.6
2014-Jul-26 17:00N 46°18' W 084°12'7 7.3 160 / 41008.3 19.1 15.8
2014-Jul-26 16:00N 46°24' W 084°18'7 3.6 190 / 61008.6 18.0 15.5
2014-Jul-26 14:00N 46°30' W 084°24'41 8.1 200 / 61009.5 18.9 15.4
2014-Jul-26 09:00N 46°54' W 085°12'1413.7 210 / 121008.8 0.513.2 5.4
2014-Jul-26 08:00N 47°00' W 085°30'1413.7 180 / 141008.5 10.9 4.4
2014-Jul-26 07:00N 47°06' W 085°48'9812.3 190 / 141008.8 8.9 4.2
2014-Jul-25 23:00N 47°36' W 088°06'1212.1 140 / 61009.5 16.2 5.9
2014-Jul-25 22:00N 47°36' W 088°24'1413.5 170 / 71009.5 14.7 6.0
2014-Jul-25 21:00N 47°30' W 088°42'7412.3 330 / 51009.5 15.0 6.7
2014-Jul-25 15:00N 47°18' W 090°30'1413.6 030 / 21010.5 16.2 11.8
2014-Jul-25 14:00N 47°12' W 090°48'1010.1 010 / 91010.210.8 11.0 9.7
2014-Jul-25 13:00N 47°06' W 091°00'1212.3 040 / 91010.5 12.2 8.5
2014-Jul-25 12:00N 47°06' W 091°18'1413.7 1011.510.8 0.510.4 9.8
2014-Jul-25 11:00N 47°00' W 091°36'1010.2 030 / 81010.810.8 0.510.0 11.1
2014-Jul-25 10:00N 46°54' W 091°48'1413.7 030 / 81011.2 12.1 13.3
2014-Jul-25 09:00N 46°48' W 092°06'6 6.0 030 / 11012.2 15.0 18.2
2014-Jul-25 08:00N 46°42' W 092°06'0 0.0 060 / 81012.2 15.2 18.7
2014-Jul-25 07:00N 46°42' W 092°06'0 0.0 070 / 101012.2 15.4 19.4
2014-Jul-25 06:00N 46°42' W 092°06'0 0.0 070 / 81013.2 17.1 18.1
2014-Jul-25 04:00N 46°42' W 092°06'0 0.0 070 / 41012.9 18.5 19.6
2014-Jul-25 03:00N 46°42' W 092°06'0 0.0 280 / 11014.2 19.6 19.5
2014-Jul-25 01:00N 46°42' W 092°06'0 0.0 060 / 41014.9 18.3 19.0
2014-Jul-25 00:00N 46°42' W 092°06'0 0.0 170 / 71014.2 19.5 18.4
2014-Jul-24 23:00N 46°42' W 092°06'20 6.8 060 / 61013.9 19.4 18.5
2014-Jul-24 20:00N 46°54' W 091°42'1413.7 080 / 61017.6 15.1 11.7
2014-Jul-24 19:00N 47°00' W 091°24'1212.3 090 / 81017.9 15.5 10.3
2014-Jul-24 18:00N 47°00' W 091°06'1413.7 100 / 31019.3 16.1 8.9
2014-Jul-24 17:00N 47°06' W 090°48'1413.6 070 / 21019.6 13.8 12.0
2014-Jul-24 16:00N 47°12' W 090°30'7813.0 090 / 21020.3 15.0 14.1
2014-Jul-24 10:00N 47°24' W 088°36'1413.6 250 / 71021.0 2.2 9.5 6.0
2014-Jul-24 09:00N 47°30' W 088°18'1212.2 220 / 131021.0 13.6 6.3
2014-Jul-24 08:00N 47°30' W 088°00'12912.9 250 / 91020.7 14.0 8.3
2014-Jul-23 22:00N 46°48' W 085°00'3110.2 280 / 161021.310.8 1.0 8.7 10.9
2014-Jul-23 19:00N 46°30' W 084°24'0 0.0 320 / 171021.0 16.9 14.8
2014-Jul-23 18:00N 46°30' W 084°24'4 4.1 280 / 91021.7 17.7 15.5
2014-Jul-23 17:00N 46°30' W 084°18'7 7.3 340 / 121020.1 18.2 15.2
2014-Jul-23 16:00N 46°24' W 084°12'20 9.9 060 / 61020.4 16.7 15.4
2014-Jul-23 14:00N 46°06' W 084°00'7 7.3 350 / 111019.4 15.4 17.6
2014-Jul-23 13:00N 46°00' W 083°54'2713.5 320 / 121019.410.8 1.014.6 16.7
2014-Jul-23 11:00N 45°36' W 083°36'3712.2 330 / 141017.410.8 1.514.4 15.8
2014-Jul-23 08:00N 45°06' W 083°06'1312.7 320 / 191013.3 14.9 15.4
2014-Jul-23 07:00N 44°54' W 083°00'3812.7 310 / 271012.310.8 1.015.4 17.1
2014-Jul-23 04:00N 44°18' W 082°42'2412.2 340 / 81012.3 20.6 19.1
2014-Jul-23 02:00N 43°54' W 082°36'2412.2 220 / 121012.3 26.2 20.9
2014-Jul-23 00:00N 43°30' W 082°30'1918.5 180 / 141013.010.8 0.526.9 21.0
2014-Jul-22 23:00N 43°12' W 082°24'1212.0 190 / 141013.7 27.8 21.4
2014-Jul-22 22:00N 43°00' W 082°24'7 7.4 200 / 141014.3 29.7 20.9
2014-Jul-22 21:00N 42°54' W 082°30'1212.0 180 / 141015.4 31.3 20.3
2014-Jul-22 20:00N 42°42' W 082°30'6 6.0 180 / 151016.4 30.9 20.1
2014-Jul-22 19:00N 42°36' W 082°30'3210.7 220 / 131016.7 30.4 20.3
2014-Jul-22 16:00N 42°18' W 083°06'1212.0 180 / 71018.2 26.7 22.9
2014-Jul-22 15:00N 42°06' W 083°06'6 6.0 190 / 71018.9 24.0 23.1
2014-Jul-22 14:00N 42°00' W 083°06'7 7.5 190 / 61019.5 22.8 23.2
2014-Jul-22 13:00N 41°54' W 083°12'4 2.2 240 / 71020.1 23.3 24.0
2014-Jul-22 11:00N 41°54' W 083°18'0 0.0 220 / 11019.8 23.1 25.3
2014-Jul-22 10:00N 41°54' W 083°18'0 0.0 170 / 11019.5 23.6 25.3
2014-Jul-22 09:00N 41°54' W 083°18'0 0.0 290 / 11019.5 23.7 25.4
2014-Jul-22 05:00N 41°54' W 083°18'   020 / 11019.8 23.9 25.9

Dump ship's entire track history